Time;durP1;ratioP1;P1;durP2;ratioP2;P2;SDS_P1;SDS_P2;PMS_P1;PMS_P2;Temp;Humidity;BMP_temperature;BMP_pressure;BME280_temperature;BME280_humidity;BME280_pressure;Samples;Min_cycle;Max_cycle;Signal;HPM_P1;HPM_P2
2022/03/11 00:01:36;;;;;;;7.68;3.78;;;;;;;;;;7395039;19;20010;-74
2022/03/11 00:04:02;;;;;;;8.10;3.92;;;;;;;;;;7396128;19;20006;-75
2022/03/11 00:06:27;;;;;;;8.20;4.15;;;;;;;;;;7393651;19;20018;-75
2022/03/11 00:08:52;;;;;;;8.05;3.25;;;;;;;;;;7395039;19;20056;-74
2022/03/11 00:11:18;;;;;;;5.53;3.13;;;;;;;;;;7396257;19;20366;-74
2022/03/11 00:13:43;;;;;;;5.75;2.85;;;;;;;;;;7391848;19;20007;-74
2022/03/11 00:16:08;;;;;;;7.47;3.03;;;;;;;;;;7394118;19;20465;-74
2022/03/11 00:18:34;;;;;;;6.70;3.33;;;;;;;;;;7394190;19;19998;-74
2022/03/11 00:20:59;;;;;;;4.25;2.53;;;;;;;;;;7394477;19;20010;-74
2022/03/11 00:23:24;;;;;;;4.65;2.80;;;;;;;;;;7392335;19;20073;-74
2022/03/11 00:25:50;;;;;;;5.70;2.67;;;;;;;;;;7394165;19;20015;-75
2022/03/11 00:28:15;;;;;;;4.82;2.33;;;;;;;;;;7395315;19;20010;-74
2022/03/11 00:30:40;;;;;;;3.80;2.22;;;;;;;;;;7394410;19;20426;-74
2022/03/11 00:33:07;;;;;;;3.78;2.28;;;;;;;;;;7394312;19;20007;-74
2022/03/11 00:35:34;;;;;;;5.55;2.20;;;;;;;;;;7394241;19;20014;-74
2022/03/11 00:37:59;;;;;;;5.32;2.15;;;;;;;;;;7393948;19;20006;-74
2022/03/11 00:40:25;;;;;;;4.13;2.15;;;;;;;;;;7394131;19;20003;-74
2022/03/11 00:42:50;;;;;;;2.53;1.58;;;;;;;;;;7395803;19;19994;-74
2022/03/11 00:45:16;;;;;;;3.58;1.98;;;;;;;;;;7393471;19;20021;-75
2022/03/11 00:47:41;;;;;;;4.07;1.90;;;;;;;;;;7395671;19;20477;-74
2022/03/11 00:50:07;;;;;;;3.67;1.55;;;;;;;;;;7394200;19;20014;-74
2022/03/11 00:52:33;;;;;;;3.10;1.63;;;;;;;;;;7393277;19;20469;-74
2022/03/11 00:54:58;;;;;;;3.03;1.25;;;;;;;;;;7393813;19;20013;-74
2022/03/11 00:57:23;;;;;;;4.05;1.50;;;;;;;;;;7391620;19;20002;-74
2022/03/11 00:59:48;;;;;;;2.17;1.35;;;;;;;;;;7394595;19;20462;-74
2022/03/11 01:02:14;;;;;;;2.25;1.20;;;;;;;;;;7394306;19;20003;-74
2022/03/11 01:04:39;;;;;;;4.72;1.70;;;;;;;;;;7394328;19;20074;-74
2022/03/11 01:07:05;;;;;;;3.05;1.25;;;;;;;;;;7395064;19;20002;-74
2022/03/11 01:09:30;;;;;;;5.88;1.63;;;;;;;;;;7394016;19;20022;-74
2022/03/11 01:11:55;;;;;;;4.78;1.75;;;;;;;;;;7392861;19;20007;-75
2022/03/11 01:14:21;;;;;;;2.00;1.30;;;;;;;;;;7394063;19;20028;-75
2022/03/11 01:16:46;;;;;;;3.58;1.25;;;;;;;;;;7392185;19;20023;-74
2022/03/11 01:19:11;;;;;;;2.50;1.13;;;;;;;;;;7391782;19;20334;-74
2022/03/11 01:21:37;;;;;;;2.53;1.25;;;;;;;;;;7393364;19;20022;-74
2022/03/11 01:24:02;;;;;;;2.30;1.10;;;;;;;;;;7393295;19;20131;-74
2022/03/11 01:26:27;;;;;;;4.03;1.27;;;;;;;;;;7390164;19;20007;-74
2022/03/11 01:28:53;;;;;;;2.95;1.17;;;;;;;;;;7391453;19;20457;-74
2022/03/11 01:31:18;;;;;;;2.33;1.17;;;;;;;;;;7392809;19;20012;-74
2022/03/11 01:33:45;;;;;;;4.18;1.13;;;;;;;;;;7389829;19;20017;-74
2022/03/11 01:36:11;;;;;;;2.80;1.33;;;;;;;;;;7392719;19;20423;-75
2022/03/11 01:38:37;;;;;;;1.60;0.93;;;;;;;;;;7395498;19;20020;-75
2022/03/11 01:41:03;;;;;;;2.30;0.98;;;;;;;;;;7398846;19;20359;-75
2022/03/11 01:43:28;;;;;;;1.55;1.00;;;;;;;;;;7399024;19;20018;-75
2022/03/11 01:45:54;;;;;;;1.88;1.30;;;;;;;;;;7396661;19;20021;-75
2022/03/11 01:48:19;;;;;;;4.13;1.17;;;;;;;;;;7395085;19;20021;-74
2022/03/11 01:50:45;;;;;;;2.70;1.30;;;;;;;;;;7391392;19;20066;-74
2022/03/11 01:53:12;;;;;;;1.95;1.20;;;;;;;;;;7390084;19;20090;-74
2022/03/11 01:55:38;;;;;;;1.45;0.88;;;;;;;;;;7392028;19;20035;-74
2022/03/11 01:58:05;;;;;;;1.85;1.10;;;;;;;;;;7392411;19;20010;-74
2022/03/11 02:00:31;;;;;;;2.53;1.38;;;;;;;;;;7392074;19;20005;-74
2022/03/11 02:02:56;;;;;;;1.80;0.95;;;;;;;;;;7390682;19;20010;-74
2022/03/11 02:05:22;;;;;;;2.35;1.35;;;;;;;;;;7391510;19;20019;-74
2022/03/11 02:07:49;;;;;;;1.17;0.80;;;;;;;;;;7389989;19;20013;-74
2022/03/11 02:10:14;;;;;;;2.13;1.27;;;;;;;;;;7389290;19;20003;-74
2022/03/11 02:12:39;;;;;;;1.13;0.90;;;;;;;;;;7391132;19;20006;-74
2022/03/11 02:15:09;;;;;;;3.35;1.17;;;;;;;;;;7391713;19;20797;-74
2022/03/11 02:17:35;;;;;;;1.55;1.10;;;;;;;;;;7390929;19;20006;-74
2022/03/11 02:20:00;;;;;;;2.22;1.15;;;;;;;;;;7392457;19;20082;-74
2022/03/11 02:22:26;;;;;;;2.90;1.23;;;;;;;;;;7392145;19;20041;-75
2022/03/11 02:24:55;;;;;;;3.30;1.40;;;;;;;;;;7390585;19;20003;-74
2022/03/11 02:27:21;;;;;;;2.60;1.27;;;;;;;;;;7389157;19;20046;-74
2022/03/11 02:29:46;;;;;;;1.17;0.80;;;;;;;;;;7391824;19;20019;-74
2022/03/11 02:32:12;;;;;;;2.63;1.27;;;;;;;;;;7390560;19;20006;-74
2022/03/11 02:34:38;;;;;;;1.80;1.17;;;;;;;;;;7392710;19;21531;-74
2022/03/11 02:37:08;;;;;;;4.57;1.60;;;;;;;;;;7391742;19;20009;-74
2022/03/11 02:39:34;;;;;;;2.60;1.17;;;;;;;;;;7389574;19;20035;-74
2022/03/11 02:42:00;;;;;;;3.30;1.15;;;;;;;;;;7390929;19;20567;-74
2022/03/11 02:44:29;;;;;;;1.77;1.10;;;;;;;;;;7390344;19;20017;-74
2022/03/11 02:46:54;;;;;;;2.53;1.10;;;;;;;;;;7387539;19;20003;-74
2022/03/11 02:49:20;;;;;;;1.83;1.10;;;;;;;;;;7390472;19;20019;-74
2022/03/11 02:51:45;;;;;;;2.65;1.27;;;;;;;;;;7390789;19;20006;-74
2022/03/11 02:54:10;;;;;;;2.78;1.17;;;;;;;;;;7391480;19;20002;-74
2022/03/11 02:56:35;;;;;;;2.33;1.25;;;;;;;;;;7388543;19;20021;-74
2022/03/11 02:59:00;;;;;;;3.88;1.38;;;;;;;;;;7390465;19;20078;-74
2022/03/11 03:01:26;;;;;;;4.28;1.40;;;;;;;;;;7388628;19;20480;-74
2022/03/11 03:03:51;;;;;;;4.47;1.23;;;;;;;;;;7389647;19;20025;-74
2022/03/11 03:06:16;;;;;;;2.45;1.08;;;;;;;;;;7389506;19;20078;-74
2022/03/11 03:08:42;;;;;;;3.15;1.00;;;;;;;;;;7389620;19;20003;-74
2022/03/11 03:11:07;;;;;;;2.25;1.10;;;;;;;;;;7387943;19;20006;-74
2022/03/11 03:13:32;;;;;;;2.83;1.23;;;;;;;;;;7389113;19;20003;-73
2022/03/11 03:15:57;;;;;;;2.92;1.42;;;;;;;;;;7388101;19;20031;-74
2022/03/11 03:18:23;;;;;;;2.83;1.15;;;;;;;;;;7389235;19;20015;-74
2022/03/11 03:20:48;;;;;;;1.63;1.00;;;;;;;;;;7388386;19;20052;-75
2022/03/11 03:23:13;;;;;;;3.08;1.08;;;;;;;;;;7388862;19;20025;-74
2022/03/11 03:25:39;;;;;;;2.55;1.00;;;;;;;;;;7390504;19;20412;-74
2022/03/11 03:28:04;;;;;;;3.30;1.30;;;;;;;;;;7389975;19;20030;-75
2022/03/11 03:30:30;;;;;;;1.45;0.88;;;;;;;;;;7391975;19;20002;-74
2022/03/11 03:32:55;;;;;;;2.20;1.10;;;;;;;;;;7389603;19;20014;-74
2022/03/11 03:35:20;;;;;;;3.60;1.42;;;;;;;;;;7389519;19;20007;-74
2022/03/11 03:37:45;;;;;;;2.60;1.17;;;;;;;;;;7389692;19;20007;-74
2022/03/11 03:40:11;;;;;;;2.05;1.40;;;;;;;;;;7392990;19;20035;-74
2022/03/11 03:42:37;;;;;;;3.97;1.60;;;;;;;;;;7389837;19;20021;-74
2022/03/11 03:45:03;;;;;;;4.88;1.60;;;;;;;;;;7388024;19;20023;-74
2022/03/11 03:47:28;;;;;;;2.83;1.30;;;;;;;;;;7390339;19;20021;-74
2022/03/11 03:49:54;;;;;;;2.47;1.45;;;;;;;;;;7387334;19;20003;-74
2022/03/11 03:52:19;;;;;;;3.08;1.17;;;;;;;;;;7387662;19;20111;-74
2022/03/11 03:54:44;;;;;;;3.15;1.25;;;;;;;;;;7389248;19;20649;-74
2022/03/11 03:57:10;;;;;;;2.40;1.27;;;;;;;;;;7388883;19;20118;-74
2022/03/11 03:59:37;;;;;;;1.77;1.05;;;;;;;;;;7388112;19;20026;-74
2022/03/11 04:02:03;;;;;;;1.73;1.20;;;;;;;;;;7389471;19;20031;-74
2022/03/11 04:04:28;;;;;;;3.80;1.45;;;;;;;;;;7390581;19;20684;-74
2022/03/11 04:06:53;;;;;;;2.08;1.23;;;;;;;;;;7385005;19;20007;-74
2022/03/11 04:09:19;;;;;;;5.43;1.48;;;;;;;;;;7389181;19;20481;-73
2022/03/11 04:11:44;;;;;;;2.78;1.23;;;;;;;;;;7387228;19;19995;-74
2022/03/11 04:14:09;;;;;;;3.03;1.38;;;;;;;;;;7387852;19;20095;-74
2022/03/11 04:16:34;;;;;;;2.08;1.10;;;;;;;;;;7387261;19;20017;-74
2022/03/11 04:19:00;;;;;;;4.95;1.40;;;;;;;;;;7388426;19;20002;-74
2022/03/11 04:21:25;;;;;;;2.90;1.02;;;;;;;;;;7388295;19;20306;-74
2022/03/11 04:23:51;;;;;;;4.68;1.30;;;;;;;;;;7387491;19;20058;-74
2022/03/11 04:26:17;;;;;;;3.28;1.05;;;;;;;;;;7387895;19;20039;-74
2022/03/11 04:28:43;;;;;;;4.45;1.30;;;;;;;;;;7388219;19;20030;-73
2022/03/11 04:31:10;;;;;;;3.03;1.00;;;;;;;;;;7387651;19;20039;-74
2022/03/11 04:33:37;;;;;;;3.25;1.40;;;;;;;;;;7389629;19;20652;-74
2022/03/11 04:36:03;;;;;;;2.65;1.17;;;;;;;;;;7389895;19;19995;-74
2022/03/11 04:38:29;;;;;;;3.30;1.42;;;;;;;;;;7391869;19;20078;-74
2022/03/11 04:40:55;;;;;;;2.40;1.58;;;;;;;;;;7393860;19;20007;-74
2022/03/11 04:43:21;;;;;;;2.85;1.30;;;;;;;;;;7395408;19;20077;-74
2022/03/11 04:45:49;;;;;;;1.80;1.27;;;;;;;;;;7393287;19;20609;-74
2022/03/11 04:48:14;;;;;;;1.95;1.02;;;;;;;;;;7393481;19;20094;-74
2022/03/11 04:50:40;;;;;;;1.85;1.02;;;;;;;;;;7394040;19;20445;-75
2022/03/11 04:53:05;;;;;;;3.67;1.17;;;;;;;;;;7388712;19;20010;-74
2022/03/11 04:55:31;;;;;;;4.30;1.33;;;;;;;;;;7391825;19;20363;-74
2022/03/11 04:57:57;;;;;;;2.60;1.13;;;;;;;;;;7393968;19;20041;-74
2022/03/11 05:00:23;;;;;;;4.93;1.55;;;;;;;;;;7393207;19;20691;-74
2022/03/11 05:02:48;;;;;;;3.15;1.35;;;;;;;;;;7392578;19;20031;-74
2022/03/11 05:05:15;;;;;;;1.88;0.88;;;;;;;;;;7392628;19;20010;-74
2022/03/11 05:07:41;;;;;;;4.90;1.92;;;;;;;;;;7391927;19;20002;-73
2022/03/11 05:10:09;;;;;;;2.95;1.20;;;;;;;;;;7388740;19;20003;-73
2022/03/11 05:12:35;;;;;;;2.88;1.23;;;;;;;;;;7388058;19;20011;-73
2022/03/11 05:15:02;;;;;;;2.90;1.35;;;;;;;;;;7388582;19;20066;-74
2022/03/11 05:17:27;;;;;;;3.45;1.30;;;;;;;;;;7390483;19;20094;-74
2022/03/11 05:19:52;;;;;;;4.40;1.05;;;;;;;;;;7391031;19;20106;-73
2022/03/11 05:22:18;;;;;;;3.47;1.38;;;;;;;;;;7388253;19;20011;-74
2022/03/11 05:24:43;;;;;;;2.05;1.00;;;;;;;;;;7387702;19;20353;-76
2022/03/11 05:27:09;;;;;;;3.22;1.40;;;;;;;;;;7382072;19;19998;-73
2022/03/11 05:29:35;;;;;;;4.78;1.63;;;;;;;;;;7383474;19;20384;-75
2022/03/11 05:32:00;;;;;;;3.88;1.27;;;;;;;;;;7390323;19;20002;-74
2022/03/11 05:34:26;;;;;;;3.70;1.42;;;;;;;;;;7391282;19;20006;-74
2022/03/11 05:36:51;;;;;;;2.65;1.08;;;;;;;;;;7387142;19;20005;-73
2022/03/11 05:39:17;;;;;;;2.70;1.23;;;;;;;;;;7390777;19;20517;-74
2022/03/11 05:41:44;;;;;;;3.53;1.55;;;;;;;;;;7391972;19;20449;-73
2022/03/11 05:44:10;;;;;;;2.88;1.27;;;;;;;;;;7392306;19;20006;-73
2022/03/11 05:46:35;;;;;;;3.13;1.40;;;;;;;;;;7389334;19;20035;-74
2022/03/11 05:49:01;;;;;;;3.17;1.38;;;;;;;;;;7389424;19;20007;-74
2022/03/11 05:51:26;;;;;;;2.45;1.20;;;;;;;;;;7391713;19;20058;-74
2022/03/11 05:53:51;;;;;;;2.95;1.25;;;;;;;;;;7388989;19;20035;-76
2022/03/11 05:56:17;;;;;;;3.08;1.50;;;;;;;;;;7391140;19;20010;-74
2022/03/11 05:58:42;;;;;;;3.33;1.40;;;;;;;;;;7390873;19;20437;-76
2022/03/11 06:01:07;;;;;;;2.70;1.38;;;;;;;;;;7392672;19;20051;-74
2022/03/11 06:03:33;;;;;;;6.18;2.10;;;;;;;;;;7389479;19;20006;-73
2022/03/11 06:05:58;;;;;;;4.30;1.50;;;;;;;;;;7388140;19;20429;-76
2022/03/11 06:08:23;;;;;;;3.38;1.27;;;;;;;;;;7387799;19;20892;-74
2022/03/11 06:10:49;;;;;;;6.63;1.73;;;;;;;;;;7391706;19;20009;-73
2022/03/11 06:13:14;;;;;;;4.55;2.08;;;;;;;;;;7387019;19;20014;-73
2022/03/11 06:15:41;;;;;;;2.58;1.25;;;;;;;;;;7388161;19;20078;-73
2022/03/11 06:18:06;;;;;;;4.75;1.60;;;;;;;;;;7390878;19;20013;-74
2022/03/11 06:20:32;;;;;;;2.53;1.40;;;;;;;;;;7389202;19;20070;-74
2022/03/11 06:22:58;;;;;;;3.25;1.38;;;;;;;;;;7385814;19;20010;-74
2022/03/11 06:25:24;;;;;;;5.18;1.63;;;;;;;;;;7388103;19;20006;-74
2022/03/11 06:27:49;;;;;;;5.57;1.75;;;;;;;;;;7359213;19;20323;-73
2022/03/11 06:30:14;;;;;;;4.90;1.50;;;;;;;;;;7381779;19;20062;-73
2022/03/11 06:32:45;;;;;;;4.97;1.92;;;;;;;;;;7384493;19;20003;-73
2022/03/11 06:35:13;;;;;;;3.30;1.63;;;;;;;;;;7386314;19;20011;-73
2022/03/11 06:37:39;;;;;;;4.45;1.70;;;;;;;;;;7386685;19;20007;-73
2022/03/11 06:40:06;;;;;;;5.43;1.75;;;;;;;;;;7387203;19;20009;-73
2022/03/11 06:42:35;;;;;;;3.47;1.90;;;;;;;;;;7388698;19;20010;-73
2022/03/11 06:45:00;;;;;;;3.80;1.88;;;;;;;;;;7387311;19;20017;-73
2022/03/11 06:47:25;;;;;;;4.70;1.80;;;;;;;;;;7388141;19;20011;-73
2022/03/11 06:49:50;;;;;;;4.35;2.03;;;;;;;;;;7386098;19;20011;-72
2022/03/11 06:52:16;;;;;;;4.10;1.80;;;;;;;;;;7387592;19;20002;-73
2022/03/11 06:54:41;;;;;;;3.72;1.88;;;;;;;;;;7389803;19;19998;-73
2022/03/11 06:57:06;;;;;;;5.20;1.92;;;;;;;;;;7386924;19;20331;-73
2022/03/11 06:59:31;;;;;;;3.35;1.73;;;;;;;;;;7386810;19;20006;-73
2022/03/11 07:01:57;;;;;;;3.67;1.88;;;;;;;;;;7388711;19;20006;-73
2022/03/11 07:04:22;;;;;;;3.15;1.65;;;;;;;;;;7388991;19;20007;-74
2022/03/11 07:06:47;;;;;;;5.05;2.30;;;;;;;;;;7387183;19;20106;-73
2022/03/11 07:09:13;;;;;;;5.30;2.30;;;;;;;;;;7388024;19;20114;-73
2022/03/11 07:11:38;;;;;;;5.22;2.08;;;;;;;;;;7387494;19;20027;-73
2022/03/11 07:14:04;;;;;;;5.07;2.30;;;;;;;;;;7386967;19;20027;-73
2022/03/11 07:16:29;;;;;;;4.22;2.28;;;;;;;;;;7387528;19;20011;-73
2022/03/11 07:18:54;;;;;;;5.07;2.40;;;;;;;;;;7382137;19;20010;-73
2022/03/11 07:21:19;;;;;;;3.80;2.05;;;;;;;;;;7387174;19;20003;-74
2022/03/11 07:23:46;;;;;;;5.43;2.45;;;;;;;;;;7386637;19;20062;-73
2022/03/11 07:26:11;;;;;;;10.07;3.00;;;;;;;;;;7386115;19;20038;-73
2022/03/11 07:28:37;;;;;;;6.07;2.47;;;;;;;;;;7386234;19;20002;-73
2022/03/11 07:31:02;;;;;;;7.43;2.85;;;;;;;;;;7385481;19;20010;-73
2022/03/11 07:33:27;;;;;;;5.40;2.83;;;;;;;;;;7386662;19;20006;-73
2022/03/11 07:35:53;;;;;;;5.25;2.58;;;;;;;;;;7387943;19;20014;-73
2022/03/11 07:38:18;;;;;;;6.43;3.08;;;;;;;;;;7387334;19;20418;-74
2022/03/11 07:40:43;;;;;;;4.95;2.38;;;;;;;;;;7388327;19;20066;-73
2022/03/11 07:43:09;;;;;;;6.30;2.92;;;;;;;;;;7385875;19;20024;-74
2022/03/11 07:45:35;;;;;;;7.32;3.47;;;;;;;;;;7387867;19;20011;-74
2022/03/11 07:48:00;;;;;;;8.35;2.75;;;;;;;;;;7389468;19;20005;-73
2022/03/11 07:50:25;;;;;;;6.05;2.85;;;;;;;;;;7388360;19;20028;-74
2022/03/11 07:52:51;;;;;;;7.38;3.35;;;;;;;;;;7384793;19;20021;-74
2022/03/11 07:55:17;;;;;;;6.00;2.75;;;;;;;;;;7388089;19;19998;-74
2022/03/11 07:57:42;;;;;;;6.57;3.25;;;;;;;;;;7389358;19;20082;-73
2022/03/11 08:00:09;;;;;;;6.18;3.17;;;;;;;;;;7384693;19;20039;-74
2022/03/11 08:02:35;;;;;;;5.50;3.15;;;;;;;;;;7387070;19;20010;-76
2022/03/11 08:05:01;;;;;;;8.50;3.70;;;;;;;;;;7388634;19;20080;-74
2022/03/11 08:07:26;;;;;;;6.50;3.20;;;;;;;;;;7386997;19;20002;-74
2022/03/11 08:09:52;;;;;;;5.22;3.03;;;;;;;;;;7393445;19;20311;-74
2022/03/11 08:12:17;;;;;;;5.93;3.05;;;;;;;;;;7395387;19;20007;-74
2022/03/11 08:14:43;;;;;;;7.20;3.95;;;;;;;;;;7392903;19;20010;-74
2022/03/11 08:17:08;;;;;;;7.15;3.35;;;;;;;;;;7389140;19;20502;-73
2022/03/11 08:19:35;;;;;;;5.75;3.15;;;;;;;;;;7391751;19;20430;-73
2022/03/11 08:22:00;;;;;;;9.10;4.28;;;;;;;;;;7391079;19;20002;-73
2022/03/11 08:24:26;;;;;;;7.05;3.50;;;;;;;;;;7393657;19;20072;-73
2022/03/11 08:26:51;;;;;;;7.03;3.83;;;;;;;;;;7389135;19;20129;-74
2022/03/11 08:29:17;;;;;;;8.23;4.00;;;;;;;;;;7386519;19;20018;-74
2022/03/11 08:31:43;;;;;;;8.02;4.13;;;;;;;;;;7390475;19;20537;-74
2022/03/11 08:34:09;;;;;;;6.60;3.65;;;;;;;;;;7383878;19;20023;-74
2022/03/11 08:36:35;;;;;;;7.72;3.67;;;;;;;;;;7385508;19;20011;-74
2022/03/11 08:39:00;;;;;;;6.70;3.80;;;;;;;;;;7389311;19;20411;-74
2022/03/11 08:41:27;;;;;;;7.85;3.85;;;;;;;;;;7389317;19;20506;-74
2022/03/11 08:43:53;;;;;;;8.77;3.95;;;;;;;;;;7390045;19;20009;-74
2022/03/11 08:46:18;;;;;;;7.70;3.95;;;;;;;;;;7388637;19;20489;-74
2022/03/11 08:48:43;;;;;;;7.00;3.83;;;;;;;;;;7389949;19;20071;-74
2022/03/11 08:51:09;;;;;;;9.23;4.47;;;;;;;;;;7391017;19;20006;-74
2022/03/11 08:53:34;;;;;;;17.92;4.72;;;;;;;;;;7386877;19;20779;-74
2022/03/11 08:56:00;;;;;;;9.20;4.63;;;;;;;;;;7389167;19;20011;-74
2022/03/11 08:58:25;;;;;;;9.52;4.90;;;;;;;;;;7392582;19;20045;-74
2022/03/11 09:00:50;;;;;;;17.83;4.70;;;;;;;;;;7391957;19;20751;-74
2022/03/11 09:03:16;;;;;;;9.50;4.45;;;;;;;;;;7392155;19;20033;-73
2022/03/11 09:05:41;;;;;;;9.70;4.50;;;;;;;;;;7389333;19;20010;-73
2022/03/11 09:08:07;;;;;;;6.90;4.20;;;;;;;;;;7388099;19;20047;-72
2022/03/11 09:10:34;;;;;;;7.70;4.15;;;;;;;;;;7386844;19;20093;-73
2022/03/11 09:13:00;;;;;;;6.40;4.13;;;;;;;;;;7386946;19;20002;-74
2022/03/11 09:15:26;;;;;;;6.63;4.10;;;;;;;;;;7386751;19;20006;-74
2022/03/11 09:17:51;;;;;;;12.02;4.35;;;;;;;;;;7387296;19;20022;-73
2022/03/11 09:20:17;;;;;;;9.05;4.22;;;;;;;;;;7383099;19;20006;-73
2022/03/11 09:22:43;;;;;;;7.47;4.35;;;;;;;;;;7389499;19;20023;-73
2022/03/11 09:25:10;;;;;;;8.57;4.07;;;;;;;;;;7383098;19;20014;-73
2022/03/11 09:27:36;;;;;;;8.88;4.53;;;;;;;;;;7385125;19;20029;-74
2022/03/11 09:30:04;;;;;;;9.05;4.68;;;;;;;;;;7385889;19;20537;-74
2022/03/11 09:32:29;;;;;;;14.00;4.50;;;;;;;;;;7384342;19;20534;-74
2022/03/11 09:34:55;;;;;;;12.18;4.95;;;;;;;;;;7386998;19;20002;-74
2022/03/11 09:37:20;;;;;;;6.85;3.80;;;;;;;;;;7386489;19;20018;-74
2022/03/11 09:39:45;;;;;;;7.60;4.57;;;;;;;;;;7385992;19;20138;-74
2022/03/11 09:42:12;;;;;;;8.20;4.55;;;;;;;;;;7388649;19;20137;-74
2022/03/11 09:44:38;;;;;;;9.63;4.95;;;;;;;;;;7386835;19;20211;-74
2022/03/11 09:47:04;;;;;;;9.52;4.90;;;;;;;;;;7387318;19;20003;-74
2022/03/11 09:49:34;;;;;;;8.38;4.20;;;;;;;;;;7385472;19;20009;-74
2022/03/11 09:52:00;;;;;;;8.35;4.45;;;;;;;;;;7389279;19;20074;-74
2022/03/11 09:54:25;;;;;;;9.07;4.55;;;;;;;;;;7390213;19;20110;-74
2022/03/11 09:56:51;;;;;;;8.07;4.40;;;;;;;;;;7386700;19;20047;-74
2022/03/11 09:59:16;;;;;;;9.48;4.70;;;;;;;;;;7387405;19;20026;-74
2022/03/11 10:01:42;;;;;;;9.30;4.35;;;;;;;;;;7391786;19;20041;-74
2022/03/11 10:04:08;;;;;;;8.65;4.45;;;;;;;;;;7389026;19;20013;-74
2022/03/11 10:06:42;;;;;;;8.60;4.40;;;;;;;;;;7388298;19;20003;-74
2022/03/11 10:09:30;;;;;;;9.32;4.90;;;;;;;;;;7391606;19;20355;-74
2022/03/11 10:11:57;;;;;;;8.07;4.10;;;;;;;;;;7387859;19;20062;-74
2022/03/11 10:14:34;;;;;;;7.95;4.53;;;;;;;;;;7389972;19;20022;-74
2022/03/11 10:17:03;;;;;;;8.00;4.30;;;;;;;;;;7390493;19;20042;-74
2022/03/11 10:19:28;;;;;;;9.02;5.28;;;;;;;;;;7389175;19;20084;-75
2022/03/11 10:21:57;;;;;;;11.82;5.63;;;;;;;;;;7390417;19;20011;-75
2022/03/11 10:24:22;;;;;;;9.98;5.47;;;;;;;;;;7390623;19;19998;-75
2022/03/11 10:26:58;;;;;;;10.23;5.25;;;;;;;;;;7387998;19;20021;-74
2022/03/11 10:29:27;;;;;;;8.15;4.70;;;;;;;;;;7390590;19;20074;-75
2022/03/11 10:31:55;;;;;;;14.40;4.72;;;;;;;;;;7386363;19;20501;-77
2022/03/11 10:34:26;;;;;;;9.55;5.10;;;;;;;;;;7387198;19;20014;-75
2022/03/11 10:37:04;;;;;;;8.30;4.43;;;;;;;;;;7385792;19;20022;-76
2022/03/11 10:39:32;;;;;;;10.00;4.50;;;;;;;;;;7388997;19;20013;-76
2022/03/11 10:42:12;;;;;;;10.43;5.15;;;;;;;;;;7390441;19;19999;-76
2022/03/11 10:44:54;;;;;;;10.32;4.45;;;;;;;;;;7389626;19;20538;-76
2022/03/11 10:47:21;;;;;;;10.15;4.68;;;;;;;;;;7387119;19;20478;-76
2022/03/11 10:49:50;;;;;;;11.45;4.53;;;;;;;;;;7390955;19;20027;-75
2022/03/11 10:52:34;;;;;;;7.15;4.38;;;;;;;;;;7390313;19;20443;-75
2022/03/11 10:55:15;;;;;;;7.38;4.57;;;;;;;;;;7385320;19;20039;-76
2022/03/11 10:57:41;;;;;;;8.18;4.38;;;;;;;;;;7389401;19;20382;-76
2022/03/11 11:00:24;;;;;;;8.65;4.55;;;;;;;;;;7388149;19;20215;-77
2022/03/11 11:02:56;;;;;;;6.50;4.28;;;;;;;;;;7388667;19;20005;-75
2022/03/11 11:05:23;;;;;;;8.88;4.95;;;;;;;;;;7389508;19;20014;-75
2022/03/11 11:07:49;;;;;;;6.93;4.55;;;;;;;;;;7388565;19;20013;-77
2022/03/11 11:10:17;;;;;;;7.82;4.28;;;;;;;;;;7386723;19;20454;-76
2022/03/11 11:12:42;;;;;;;9.10;4.43;;;;;;;;;;7388553;19;20007;-77
2022/03/11 11:15:09;;;;;;;11.05;5.10;;;;;;;;;;7389606;19;20025;-77
2022/03/11 11:17:49;;;;;;;8.90;4.53;;;;;;;;;;7389787;19;20045;-77
2022/03/11 11:20:22;;;;;;;9.48;4.85;;;;;;;;;;7388665;19;20011;-77
2022/03/11 11:22:51;;;;;;;8.30;4.75;;;;;;;;;;7387599;19;20015;-77
2022/03/11 11:25:19;;;;;;;9.90;4.40;;;;;;;;;;7386535;19;20036;-76
2022/03/11 11:27:47;;;;;;;9.60;5.60;;;;;;;;;;7396296;19;20134;-77
2022/03/11 11:30:21;;;;;;;9.90;4.75;;;;;;;;;;7395990;19;20006;-77
2022/03/11 11:32:55;;;;;;;12.65;5.10;;;;;;;;;;7393594;19;20006;-77
2022/03/11 11:35:30;;;;;;;10.73;5.28;;;;;;;;;;7388304;19;20020;-76
2022/03/11 11:37:59;;;;;;;9.25;4.70;;;;;;;;;;7391679;19;20024;-77
2022/03/11 11:40:28;;;;;;;11.10;5.10;;;;;;;;;;7388934;19;20013;-77
2022/03/11 11:43:12;;;;;;;7.97;4.85;;;;;;;;;;7396197;19;20467;-79
2022/03/11 11:45:43;;;;;;;7.78;4.90;;;;;;;;;;7406086;19;20327;-79
2022/03/11 11:48:45;;;;;;;7.90;4.70;;;;;;;;;;7403093;19;20017;-79
2022/03/11 11:51:20;;;;;;;7.18;3.92;;;;;;;;;;7402473;19;20398;-80
2022/03/11 11:53:50;;;;;;;8.70;4.55;;;;;;;;;;7403268;19;20002;-79
2022/03/11 11:56:36;;;;;;;11.05;5.20;;;;;;;;;;7403685;19;20403;-78
2022/03/11 11:59:04;;;;;;;11.60;4.80;;;;;;;;;;7399444;19;20010;-79
2022/03/11 12:01:53;;;;;;;11.82;4.90;;;;;;;;;;7405639;19;20003;-79
2022/03/11 12:04:28;;;;;;;9.40;5.07;;;;;;;;;;7404019;19;20040;-79
2022/03/11 12:07:04;;;;;;;7.28;4.53;;;;;;;;;;7400953;19;20010;-79
2022/03/11 12:09:39;;;;;;;9.82;4.70;;;;;;;;;;7404888;19;20003;-79
2022/03/11 12:12:05;;;;;;;12.17;4.60;;;;;;;;;;7405630;19;20014;-79
2022/03/11 12:14:30;;;;;;;10.65;4.97;;;;;;;;;;7402374;19;20271;-79
2022/03/11 12:17:07;;;;;;;9.32;5.32;;;;;;;;;;7406431;19;20031;-79
2022/03/11 12:19:42;;;;;;;10.93;5.13;;;;;;;;;;7404590;19;20364;-78
2022/03/11 12:22:43;;;;;;;9.63;4.85;;;;;;;;;;7399790;19;20006;-79
2022/03/11 12:25:11;;;;;;;8.98;4.68;;;;;;;;;;7404853;19;20006;-79
2022/03/11 12:27:58;;;;;;;8.15;4.80;;;;;;;;;;7407447;19;20006;-80
2022/03/11 12:30:24;;;;;;;10.45;5.13;;;;;;;;;;7404752;19;20073;-80
2022/03/11 12:32:51;;;;;;;10.10;4.85;;;;;;;;;;7406398;19;20450;-79
2022/03/11 12:35:21;;;;;;;11.60;4.93;;;;;;;;;;7408950;19;20014;-78
2022/03/11 12:37:46;;;;;;;10.57;4.65;;;;;;;;;;7415629;19;20002;-81
2022/03/11 12:40:12;;;;;;;7.40;4.75;;;;;;;;;;7415804;19;20031;-79
2022/03/11 12:42:41;;;;;;;9.60;5.18;;;;;;;;;;7413353;19;20044;-79
2022/03/11 12:45:07;;;;;;;7.35;4.95;;;;;;;;;;7413015;19;20020;-80
2022/03/11 12:47:36;;;;;;;9.95;5.15;;;;;;;;;;7415698;19;20007;-80
2022/03/11 12:50:03;;;;;;;9.07;4.45;;;;;;;;;;7411564;19;20362;-79
2022/03/11 12:52:35;;;;;;;6.60;4.35;;;;;;;;;;7404891;19;20006;-78
2022/03/11 12:55:01;;;;;;;8.32;4.90;;;;;;;;;;7399700;19;20043;-78
2022/03/11 12:57:26;;;;;;;8.80;5.00;;;;;;;;;;7401707;19;19995;-78
2022/03/11 12:59:51;;;;;;;14.00;5.18;;;;;;;;;;7399669;19;20013;-78
2022/03/11 13:02:17;;;;;;;10.88;5.47;;;;;;;;;;7409054;19;20409;-77
2022/03/11 13:04:43;;;;;;;9.95;5.22;;;;;;;;;;7406439;19;20019;-78
2022/03/11 13:07:09;;;;;;;10.68;5.22;;;;;;;;;;7410948;19;20006;-78
2022/03/11 13:09:34;;;;;;;21.73;6.60;;;;;;;;;;7411792;19;20014;-78
2022/03/11 13:12:24;;;;;;;11.05;5.22;;;;;;;;;;7404300;19;20006;-78
2022/03/11 13:15:08;;;;;;;12.75;5.03;;;;;;;;;;7405564;19;20002;-78
2022/03/11 13:17:44;;;;;;;8.82;4.78;;;;;;;;;;7411723;19;20103;-79
2022/03/11 13:20:33;;;;;;;8.57;5.20;;;;;;;;;;7410909;19;20006;-78
2022/03/11 13:23:35;;;;;;;10.57;4.90;;;;;;;;;;7408955;19;20006;-78
2022/03/11 13:26:53;;;;;;;9.23;5.22;;;;;;;;;;7406713;19;20014;-78
2022/03/11 13:29:19;;;;;;;7.95;4.97;;;;;;;;;;7397286;19;20013;-78
2022/03/11 13:31:57;;;;;;;10.25;5.38;;;;;;;;;;7400970;19;20074;-79
2022/03/11 13:35:05;;;;;;;9.10;5.13;;;;;;;;;;7411207;19;20020;-79
2022/03/11 13:38:02;;;;;;;9.05;5.03;;;;;;;;;;7404827;19;20468;-78
2022/03/11 13:44:44;;;;;;;7.85;4.95;;;;;;;;;;7402171;19;19990;-78
2022/03/11 13:48:04;;;;;;;8.02;4.45;;;;;;;;;;7402175;19;20024;-79
2022/03/11 13:57:37;;;;;;;9.93;4.88;;;;;;;;;;7397233;19;20024;-79
2022/03/11 14:00:24;;;;;;;;;;;;;;;;;;7399132;19;20494;-78
2022/03/11 14:02:50;;;;;;;7.22;4.65;;;;;;;;;;7391464;19;20303;-78
2022/03/11 14:05:18;;;;;;;10.35;5.53;;;;;;;;;;7391074;19;20015;-77
2022/03/11 14:07:46;;;;;;;6.80;4.45;;;;;;;;;;7396406;19;20010;-78
2022/03/11 14:10:19;;;;;;;15.43;5.30;;;;;;;;;;7388998;19;20014;-76
2022/03/11 14:12:47;;;;;;;7.70;5.10;;;;;;;;;;7390188;19;20015;-77
2022/03/11 14:16:07;;;;;;;8.90;5.28;;;;;;;;;;7406758;19;20413;-71
2022/03/11 14:18:33;;;;;;;9.95;4.95;;;;;;;;;;7409360;19;20574;-71
2022/03/11 14:20:58;;;;;;;6.97;3.97;;;;;;;;;;7412183;19;20010;-71
2022/03/11 14:23:24;;;;;;;10.85;5.80;;;;;;;;;;7412557;19;20025;-71
2022/03/11 14:25:49;;;;;;;10.00;4.80;;;;;;;;;;7412888;19;20009;-71
2022/03/11 14:28:17;;;;;;;8.02;4.63;;;;;;;;;;7411146;19;20088;-71
2022/03/11 14:30:43;;;;;;;9.48;4.78;;;;;;;;;;7414789;19;20017;-70
2022/03/11 14:33:08;;;;;;;10.57;5.15;;;;;;;;;;7412991;19;20018;-73
2022/03/11 14:35:34;;;;;;;9.10;4.88;;;;;;;;;;7411389;19;20006;-71
2022/03/11 14:38:01;;;;;;;6.78;4.35;;;;;;;;;;7414003;19;20424;-71
2022/03/11 14:40:29;;;;;;;9.27;6.13;;;;;;;;;;7413437;19;20006;-71
2022/03/11 14:42:54;;;;;;;10.23;4.68;;;;;;;;;;7417171;19;20889;-72
2022/03/11 14:45:19;;;;;;;12.68;4.80;;;;;;;;;;7413851;19;20114;-72
2022/03/11 14:47:45;;;;;;;9.82;4.63;;;;;;;;;;7418021;19;20153;-75
2022/03/11 14:50:12;;;;;;;7.65;5.25;;;;;;;;;;7419468;19;20014;-74
2022/03/11 14:52:39;;;;;;;12.27;4.88;;;;;;;;;;7418234;19;20010;-71
2022/03/11 14:55:06;;;;;;;24.17;7.03;;;;;;;;;;7416145;19;20027;-71
2022/03/11 14:57:32;;;;;;;7.72;4.68;;;;;;;;;;7420009;19;20047;-71